createdAt,value
2019-04-29T00:00:40.055Z,36.43
2019-04-29T00:03:11.207Z,37.63
2019-04-29T00:05:41.725Z,33.37
2019-04-29T00:08:12.152Z,34.90
2019-04-29T00:10:42.721Z,35.87
2019-04-29T00:13:13.815Z,33.53
2019-04-29T00:16:06.495Z,35.17
2019-04-29T00:18:49.779Z,37.50
2019-04-29T00:21:20.100Z,35.40
2019-04-29T00:24:03.237Z,33.67
2019-04-29T00:26:22.468Z,34.00
2019-04-29T00:28:53.062Z,32.67
2019-04-29T00:31:23.475Z,35.20
2019-04-29T00:33:53.913Z,34.77
2019-04-29T00:36:26.558Z,34.90
2019-04-29T00:39:28.317Z,34.97
2019-04-29T00:42:14.175Z,32.43
2019-04-29T00:44:44.558Z,35.37
2019-04-29T00:47:15.163Z,33.97
2019-04-29T00:49:46.531Z,36.83
2019-04-29T00:52:16.925Z,33.93
2019-04-29T00:54:52.833Z,36.13
2019-04-29T00:57:23.195Z,39.53
2019-04-29T00:59:53.594Z,39.53
2019-04-29T01:02:23.973Z,33.40
2019-04-29T01:04:54.503Z,39.83
2019-04-29T01:07:24.879Z,36.23
2019-04-29T01:09:56.401Z,37.83
2019-04-29T01:12:26.779Z,35.70
2019-04-29T01:14:57.113Z,35.53
2019-04-29T01:17:27.443Z,40.73
2019-04-29T01:19:57.799Z,37.27
2019-04-29T01:22:28.691Z,37.83
2019-04-29T01:24:59.955Z,37.77
2019-04-29T01:27:35.915Z,36.67
2019-04-29T01:30:07.272Z,34.63
2019-04-29T01:32:37.751Z,37.20
2019-04-29T01:35:08.077Z,37.60
2019-04-29T01:37:40.742Z,36.50
2019-04-29T01:40:38.785Z,37.63
2019-04-29T01:43:09.239Z,37.60
2019-04-29T01:45:39.817Z,34.87
2019-04-29T01:48:10.177Z,38.20
2019-04-29T01:50:40.567Z,35.43
2019-04-29T01:53:10.906Z,38.57
2019-04-29T01:55:41.383Z,35.47
2019-04-29T01:58:11.807Z,36.43
2019-04-29T02:00:42.207Z,38.80
2019-04-29T02:03:12.611Z,41.73
2019-04-29T02:05:43.055Z,38.97
2019-04-29T02:08:13.500Z,36.40
2019-04-29T02:10:43.893Z,36.53
2019-04-29T02:13:14.315Z,42.10
2019-04-29T02:15:44.743Z,40.80
2019-04-29T02:18:15.162Z,38.47
2019-04-29T02:20:45.521Z,40.93
2019-04-29T02:23:28.029Z,41.40
2019-04-29T02:25:58.340Z,40.37
2019-04-29T02:28:28.795Z,42.13
2019-04-29T02:31:01.780Z,40.43
2019-04-29T02:33:32.429Z,40.77
2019-04-29T02:36:02.967Z,38.73
2019-04-29T02:38:45.396Z,39.90
2019-04-29T02:41:38.019Z,41.13
2019-04-29T02:44:10.205Z,46.77
2019-04-29T02:46:40.628Z,41.90
2019-04-29T02:49:11.014Z,44.57
2019-04-29T02:51:46.330Z,41.17
2019-04-29T02:54:16.694Z,39.13
2019-04-29T02:56:50.913Z,42.57
2019-04-29T02:59:26.872Z,40.87
2019-04-29T03:02:18.616Z,43.67
2019-04-29T03:05:06.785Z,40.87
2019-04-29T03:07:37.462Z,40.93
2019-04-29T03:10:08.859Z,43.27
2019-04-29T03:12:40.057Z,43.53
2019-04-29T03:15:10.844Z,42.97
2019-04-29T03:17:41.508Z,39.53
2019-04-29T03:20:20.949Z,47.10
2019-04-29T03:22:53.422Z,44.33
2019-04-29T03:25:23.787Z,43.40
2019-04-29T03:27:54.157Z,44.53
2019-04-29T03:30:26.550Z,42.70
2019-04-29T03:32:56.902Z,42.57
2019-04-29T03:35:27.513Z,41.27
2019-04-29T03:37:59.332Z,39.23
2019-04-29T03:40:29.904Z,45.37
2019-04-29T03:43:00.418Z,41.40
2019-04-29T03:45:31.008Z,44.47
2019-04-29T03:48:01.326Z,39.90
2019-04-29T03:50:31.694Z,41.03
2019-04-29T03:53:02.425Z,41.77
2019-04-29T03:55:40.111Z,45.70
2019-04-29T03:58:05.165Z,43.10
2019-04-29T04:00:35.512Z,41.90
2019-04-29T04:03:19.314Z,40.87
2019-04-29T04:06:11.735Z,41.70
2019-04-29T04:09:04.694Z,38.10
2019-04-29T04:11:20.612Z,41.73
2019-04-29T04:13:51.043Z,39.47
2019-04-29T04:16:46.565Z,40.73
2019-04-29T04:19:17.323Z,40.53
2019-04-29T04:21:47.693Z,39.80
2019-04-29T04:24:18.415Z,36.93
2019-04-29T04:26:49.106Z,36.30
2019-04-29T04:29:19.505Z,40.57
2019-04-29T04:31:49.886Z,37.97
2019-04-29T04:34:20.290Z,39.70
2019-04-29T04:36:50.749Z,38.20
2019-04-29T04:39:21.156Z,40.77
2019-04-29T04:41:51.607Z,47.53
2019-04-29T04:44:23.664Z,41.57
2019-04-29T04:46:54.026Z,42.03
2019-04-29T04:49:24.669Z,39.50
2019-04-29T04:51:55.042Z,39.33
2019-04-29T04:54:26.573Z,39.40
2019-04-29T04:56:56.970Z,38.07
2019-04-29T04:59:27.394Z,39.17
2019-04-29T05:01:57.799Z,39.57
2019-04-29T05:04:28.190Z,38.37
2019-04-29T05:06:58.581Z,37.10
2019-04-29T05:09:28.977Z,36.00
2019-04-29T05:11:59.328Z,38.60
2019-04-29T05:14:29.722Z,38.30
2019-04-29T05:17:00.142Z,37.20
2019-04-29T05:19:30.474Z,41.80
2019-04-29T05:22:01.022Z,39.73
2019-04-29T05:24:31.420Z,46.03
2019-04-29T05:27:01.754Z,43.70
2019-04-29T05:29:32.118Z,41.30
2019-04-29T05:32:02.406Z,45.63
2019-04-29T05:34:34.370Z,60.63
2019-04-29T05:37:15.541Z,58.27
2019-04-29T05:39:46.506Z,45.00
2019-04-29T05:42:17.335Z,57.50
2019-04-29T05:45:06.851Z,54.37
2019-04-29T05:47:39.671Z,53.80
2019-04-29T05:50:34.848Z,67.63
2019-04-29T05:53:18.244Z,63.80
2019-04-29T05:55:52.414Z,75.43
2019-04-29T05:58:21.656Z,64.47
2019-04-29T06:01:04.956Z,53.07
2019-04-29T06:03:37.877Z,54.17
2019-04-29T06:06:07.448Z,55.50
2019-04-29T06:08:39.087Z,54.33
2019-04-29T06:11:10.338Z,57.33
2019-04-29T06:13:40.730Z,58.90
2019-04-29T06:16:11.298Z,54.73
2019-04-29T06:18:41.562Z,51.93
2019-04-29T06:21:11.928Z,50.40
2019-04-29T06:23:42.402Z,62.57
2019-04-29T06:26:12.795Z,68.97
2019-04-29T06:28:43.224Z,65.77
2019-04-29T06:31:13.563Z,74.37
2019-04-29T06:33:44.038Z,78.90
2019-04-29T06:36:15.032Z,85.30
2019-04-29T06:38:45.435Z,67.20
2019-04-29T06:41:15.762Z,72.58
2019-04-29T06:43:46.190Z,77.45
2019-04-29T06:46:16.588Z,88.30
2019-04-29T06:48:47.014Z,73.15
2019-04-29T06:51:17.339Z,76.30
2019-04-29T06:53:49.733Z,72.65
2019-04-29T06:56:21.314Z,71.62
2019-04-29T06:58:51.697Z,55.88
2019-04-29T07:01:22.068Z,68.80
2019-04-29T07:03:55.795Z,70.35
2019-04-29T07:06:24.467Z,62.67
2019-04-29T07:08:54.809Z,50.45
2019-04-29T07:11:25.210Z,41.68
2019-04-29T07:13:57.630Z,32.75
2019-04-29T07:16:31.767Z,37.13
2019-04-29T07:19:00.142Z,27.43
2019-04-29T07:21:31.833Z,31.87
2019-04-29T07:24:02.160Z,29.10
2019-04-29T07:26:32.583Z,29.73
2019-04-29T07:29:02.944Z,32.77
2019-04-29T07:31:35.111Z,29.73
2019-04-29T07:34:08.174Z,30.63
2019-04-29T07:36:37.407Z,29.37
2019-04-29T07:39:08.622Z,30.63
2019-04-29T07:41:39.071Z,28.77
2019-04-29T07:44:09.474Z,30.20
2019-04-29T07:46:56.744Z,31.68
2019-04-29T07:49:19.808Z,31.12
2019-04-29T07:51:50.514Z,28.52
2019-04-29T07:54:22.125Z,30.15
2019-04-29T07:56:53.692Z,30.05
2019-04-29T07:59:24.117Z,26.25
2019-04-29T08:01:55.790Z,28.07
2019-04-29T08:04:26.812Z,23.83
2019-04-29T08:06:57.500Z,28.67
2019-04-29T08:09:27.841Z,26.45
2019-04-29T08:11:58.993Z,28.85
2019-04-29T08:14:32.528Z,23.85
2019-04-29T08:17:02.966Z,32.17
2019-04-29T08:19:33.364Z,29.48
2019-04-29T08:22:03.699Z,26.30
2019-04-29T08:24:37.199Z,22.77
2019-04-29T08:27:06.158Z,23.45
2019-04-29T08:29:37.425Z,24.07
2019-04-29T08:32:07.996Z,21.87
2019-04-29T08:34:40.699Z,22.70
2019-04-29T08:37:10.424Z,26.97
2019-04-29T08:39:40.868Z,25.82
2019-04-29T08:42:15.890Z,24.25
2019-04-29T08:45:02.166Z,22.07
2019-04-29T08:47:34.820Z,24.50
2019-04-29T08:50:06.329Z,26.65
2019-04-29T08:52:36.830Z,25.02
2019-04-29T08:55:07.787Z,24.07
2019-04-29T08:57:38.286Z,24.52
2019-04-29T09:00:09.724Z,27.15
2019-04-29T09:02:41.534Z,26.37
2019-04-29T09:05:13.342Z,26.27
2019-04-29T09:07:43.740Z,22.05
2019-04-29T09:10:14.617Z,27.02
2019-04-29T09:12:45.038Z,26.12
2019-04-29T09:15:16.222Z,23.22
2019-04-29T09:17:46.654Z,22.58
2019-04-29T09:20:17.486Z,27.07
2019-04-29T09:22:55.631Z,22.77
2019-04-29T09:25:45.356Z,27.52
2019-04-29T09:28:18.303Z,29.25
2019-04-29T09:30:48.600Z,29.72
2019-04-29T09:33:19.010Z,26.82
2019-04-29T09:35:49.364Z,25.37
2019-04-29T09:38:19.834Z,27.00
2019-04-29T09:40:59.512Z,29.72
2019-04-29T09:43:33.473Z,27.27
2019-04-29T09:46:07.336Z,27.27
2019-04-29T09:48:38.286Z,24.23
2019-04-29T09:51:17.219Z,24.45
2019-04-29T09:53:41.005Z,23.02
2019-04-29T09:56:11.463Z,25.48
2019-04-29T09:58:42.300Z,27.22
2019-04-29T10:01:22.338Z,32.67
2019-04-29T10:04:28.102Z,23.90
2019-04-29T10:06:58.934Z,24.47
2019-04-29T10:09:29.336Z,25.30
2019-04-29T10:11:59.968Z,22.20
2019-04-29T10:14:30.487Z,24.35
2019-04-29T10:17:16.723Z,29.15
2019-04-29T10:20:01.862Z,30.72
2019-04-29T10:22:32.329Z,26.65
2019-04-29T10:25:03.061Z,23.95
2019-04-29T10:27:33.707Z,25.50
2019-04-29T10:30:05.806Z,27.75
2019-04-29T10:32:42.059Z,32.28
2019-04-29T10:35:10.684Z,25.25
2019-04-29T10:37:42.803Z,25.60
2019-04-29T10:40:33.576Z,28.85
2019-04-29T10:43:24.396Z,29.40
2019-04-29T10:46:06.959Z,25.68
2019-04-29T10:48:43.638Z,24.32
2019-04-29T10:51:15.885Z,23.98
2019-04-29T10:53:46.690Z,22.52
2019-04-29T10:56:19.125Z,20.77
2019-04-29T10:58:50.279Z,22.42
2019-04-29T11:02:05.317Z,22.82
2019-04-29T11:04:36.214Z,22.70
2019-04-29T11:07:19.087Z,21.87
2019-04-29T11:09:58.415Z,21.90
2019-04-29T11:12:28.842Z,21.57
2019-04-29T11:15:01.615Z,22.70
2019-04-29T11:17:31.558Z,24.98
2019-04-29T11:20:02.141Z,24.85
2019-04-29T11:22:39.382Z,20.15
2019-04-29T11:25:42.574Z,26.27
2019-04-29T11:28:16.194Z,18.48
2019-04-29T11:30:45.010Z,19.87
2019-04-29T11:33:21.049Z,19.02
2019-04-29T11:35:59.289Z,20.40
2019-04-29T11:38:33.400Z,21.48
2019-04-29T11:41:02.446Z,21.05
2019-04-29T11:43:34.611Z,20.10
2019-04-29T11:46:05.764Z,18.55
2019-04-29T11:48:36.565Z,19.23
2019-04-29T11:51:17.530Z,18.70
2019-04-29T11:53:48.010Z,22.30
2019-04-29T11:56:18.459Z,19.27
2019-04-29T11:59:18.471Z,20.43
2019-04-29T12:01:59.732Z,24.07
2019-04-29T12:04:34.744Z,23.70
2019-04-29T12:07:05.575Z,20.48
2019-04-29T12:09:36.005Z,23.30
2019-04-29T12:12:07.897Z,16.27
2019-04-29T12:14:54.999Z,19.07
2019-04-29T12:17:35.725Z,20.05
2019-04-29T12:20:15.497Z,15.45
2019-04-29T12:22:48.542Z,21.15
2019-04-29T12:25:18.045Z,18.80
2019-04-29T12:27:52.841Z,16.42
2019-04-29T12:30:22.326Z,19.48
2019-04-29T12:33:01.328Z,19.60
2019-04-29T12:35:51.187Z,17.32
2019-04-29T12:38:48.680Z,17.05
2019-04-29T12:41:48.202Z,16.45
2019-04-29T12:44:34.970Z,19.45
2019-04-29T12:47:26.825Z,16.65
2019-04-29T12:49:52.337Z,16.37
2019-04-29T12:52:23.062Z,17.05
2019-04-29T12:54:53.465Z,18.82
2019-04-29T12:57:24.768Z,19.25
2019-04-29T12:59:55.539Z,19.45
2019-04-29T13:02:51.097Z,17.75
2019-04-29T13:05:57.545Z,16.30
2019-04-29T13:08:22.260Z,16.48
2019-04-29T13:10:54.838Z,16.02
2019-04-29T13:13:25.163Z,19.07
2019-04-29T13:16:19.855Z,18.45
2019-04-29T13:18:53.733Z,16.48
2019-04-29T13:21:24.009Z,16.40
2019-04-29T13:24:12.126Z,13.53
2019-04-29T13:26:28.725Z,16.65
2019-04-29T13:29:01.096Z,15.05
2019-04-29T13:31:38.367Z,15.75
2019-04-29T13:34:22.392Z,18.87
2019-04-29T13:36:36.353Z,20.35
2019-04-29T13:39:09.001Z,17.30
2019-04-29T13:41:56.342Z,20.75
2019-04-29T13:44:12.873Z,15.72
2019-04-29T13:47:01.032Z,16.35
2019-04-29T13:49:49.222Z,16.42
2019-04-29T13:52:17.566Z,20.55
2019-04-29T13:54:48.064Z,18.77
2019-04-29T13:57:18.637Z,21.57
2019-04-29T14:00:00.848Z,18.27
2019-04-29T14:02:37.229Z,21.60
2019-04-29T14:05:09.535Z,19.02
2019-04-29T14:07:40.146Z,19.42
2019-04-29T14:10:14.943Z,18.48
2019-04-29T14:12:48.334Z,13.18
2019-04-29T14:15:16.255Z,15.30
2019-04-29T14:17:46.744Z,15.35
2019-04-29T14:20:17.578Z,14.28
2019-04-29T14:22:49.447Z,22.15
2019-04-29T14:25:19.811Z,15.50
2019-04-29T14:27:50.257Z,18.32
2019-04-29T14:30:21.401Z,18.40
2019-04-29T14:32:55.685Z,21.27
2019-04-29T14:35:51.131Z,16.27
2019-04-29T14:38:24.217Z,17.02
2019-04-29T14:40:54.127Z,16.27
2019-04-29T14:43:57.025Z,13.50
2019-04-29T14:46:41.868Z,15.13
2019-04-29T14:49:35.406Z,12.35
2019-04-29T14:52:08.317Z,11.05
2019-04-29T14:54:41.708Z,12.40
2019-04-29T14:57:10.469Z,14.38
2019-04-29T14:59:40.991Z,12.37
2019-04-29T15:02:19.030Z,13.35
2019-04-29T15:04:49.434Z,16.25
2019-04-29T15:07:19.786Z,11.88
2019-04-29T15:09:57.878Z,12.40
2019-04-29T15:13:11.917Z,13.08
2019-04-29T15:16:14.102Z,11.45
2019-04-29T15:19:02.345Z,11.03
2019-04-29T15:22:02.174Z,12.35
2019-04-29T15:24:34.121Z,15.18
2019-04-29T15:27:04.743Z,10.30
2019-04-29T15:29:35.071Z,9.65
2019-04-29T15:32:05.531Z,9.60
2019-04-29T15:34:35.947Z,11.78
2019-04-29T15:37:06.379Z,10.58
2019-04-29T15:39:40.752Z,13.00
2019-04-29T15:42:09.262Z,10.65
2019-04-29T15:44:39.887Z,11.25
2019-04-29T15:47:10.241Z,10.40
2019-04-29T15:49:40.606Z,10.70
2019-04-29T15:52:10.994Z,12.03
2019-04-29T15:54:45.931Z,11.53
2019-04-29T15:57:16.358Z,9.85
2019-04-29T15:59:49.234Z,11.38
2019-04-29T16:02:19.072Z,12.65
2019-04-29T16:04:55.701Z,12.73
2019-04-29T16:08:00.091Z,12.50
2019-04-29T16:11:04.645Z,15.08
2019-04-29T16:13:35.261Z,12.78
2019-04-29T16:16:05.717Z,16.93
2019-04-29T16:18:36.111Z,12.53
2019-04-29T16:21:06.561Z,13.80
2019-04-29T16:23:38.583Z,12.85
2019-04-29T16:26:08.975Z,14.83
2019-04-29T16:28:40.166Z,14.68
2019-04-29T16:31:12.005Z,15.18
2019-04-29T16:33:47.461Z,13.28
2019-04-29T16:36:14.903Z,13.25
2019-04-29T16:38:46.449Z,14.20
2019-04-29T16:41:51.105Z,14.07
2019-04-29T16:44:34.592Z,14.55
2019-04-29T16:46:52.713Z,16.60
2019-04-29T16:49:23.619Z,14.70
2019-04-29T16:51:55.829Z,17.23
2019-04-29T16:54:28.338Z,15.13
2019-04-29T16:56:59.119Z,15.03
2019-04-29T16:59:29.765Z,14.78
2019-04-29T17:02:00.189Z,14.40
2019-04-29T17:04:30.614Z,15.75
2019-04-29T17:07:12.255Z,15.75
2019-04-29T17:09:52.185Z,16.20
2019-04-29T17:12:29.302Z,14.45
2019-04-29T17:15:03.824Z,15.43
2019-04-29T17:17:29.663Z,13.93
2019-04-29T17:20:00.507Z,15.32
2019-04-29T17:22:35.595Z,15.30
2019-04-29T17:25:04.960Z,16.90
2019-04-29T17:27:55.016Z,15.23
2019-04-29T17:30:46.717Z,16.02
2019-04-29T17:33:28.212Z,16.77
2019-04-29T17:35:57.000Z,15.08
2019-04-29T17:38:27.455Z,12.47
2019-04-29T17:40:58.119Z,14.80
2019-04-29T17:43:46.600Z,15.55
2019-04-29T17:46:44.813Z,16.85
2019-04-29T17:49:29.553Z,17.27
2019-04-29T17:52:02.798Z,16.60
2019-04-29T17:54:36.689Z,18.45
2019-04-29T17:57:26.341Z,17.75
2019-04-29T18:00:15.868Z,17.60
2019-04-29T18:03:08.493Z,17.62
2019-04-29T18:06:03.118Z,18.30
2019-04-29T18:08:47.707Z,18.55
2019-04-29T18:11:18.360Z,18.27
2019-04-29T18:13:52.634Z,16.95
2019-04-29T18:16:28.402Z,16.67
2019-04-29T18:19:05.730Z,17.00
2019-04-29T18:21:53.800Z,17.80
2019-04-29T18:24:49.201Z,18.48
2019-04-29T18:27:21.347Z,17.60
2019-04-29T18:29:54.908Z,16.80
2019-04-29T18:32:35.090Z,17.30
2019-04-29T18:34:56.837Z,18.45
2019-04-29T18:37:30.415Z,20.17
2019-04-29T18:40:05.777Z,17.12
2019-04-29T18:42:38.489Z,18.00
2019-04-29T18:45:08.897Z,19.90
2019-04-29T18:47:40.352Z,18.45
2019-04-29T18:50:10.758Z,17.17
2019-04-29T18:52:42.474Z,19.00
2019-04-29T18:55:13.050Z,20.35
2019-04-29T18:57:44.438Z,18.30
2019-04-29T19:00:19.469Z,18.65
2019-04-29T19:02:52.457Z,20.85
2019-04-29T19:05:26.396Z,29.12
2019-04-29T19:08:10.900Z,19.87
2019-04-29T19:10:34.497Z,18.30
2019-04-29T19:13:07.111Z,19.23
2019-04-29T19:15:35.405Z,19.77
2019-04-29T19:18:07.936Z,21.50
2019-04-29T19:20:38.521Z,20.70
2019-04-29T19:23:10.290Z,21.60
2019-04-29T19:25:41.461Z,24.90
2019-04-29T19:28:18.876Z,19.70
2019-04-29T19:30:45.196Z,19.37
2019-04-29T19:33:25.306Z,23.50
2019-04-29T19:35:55.692Z,21.40
2019-04-29T19:38:26.664Z,21.20
2019-04-29T19:40:57.047Z,21.27
2019-04-29T19:43:27.889Z,20.70
2019-04-29T19:45:58.554Z,20.40
2019-04-29T19:48:28.917Z,22.93
2019-04-29T19:51:14.737Z,21.73
2019-04-29T19:53:31.429Z,22.47
2019-04-29T19:56:04.922Z,21.97
2019-04-29T19:58:34.593Z,22.63
2019-04-29T20:01:13.980Z,25.20
2019-04-29T20:03:52.004Z,22.27
2019-04-29T20:06:27.370Z,24.07
2019-04-29T20:09:00.830Z,24.07
2019-04-29T20:11:32.615Z,23.47
2019-04-29T20:14:04.450Z,23.97
2019-04-29T20:16:57.343Z,23.03
2019-04-29T20:19:36.965Z,27.03
2019-04-29T20:22:09.471Z,33.50
2019-04-29T20:24:40.814Z,22.37
2019-04-29T20:27:12.367Z,22.93
2019-04-29T20:29:43.175Z,24.50
2019-04-29T20:32:16.200Z,23.67
2019-04-29T20:34:46.215Z,23.13
2019-04-29T20:37:19.777Z,25.07
2019-04-29T20:39:52.013Z,22.17
2019-04-29T20:42:21.142Z,22.57
2019-04-29T20:44:52.075Z,23.53
2019-04-29T20:47:23.921Z,22.43
2019-04-29T20:49:54.774Z,23.30
2019-04-29T20:52:38.693Z,27.90
2019-04-29T20:55:10.187Z,26.23
2019-04-29T20:57:41.433Z,24.23
2019-04-29T21:00:13.211Z,24.83
2019-04-29T21:02:46.321Z,25.30
2019-04-29T21:05:23.120Z,26.23
2019-04-29T21:07:49.284Z,25.67
2019-04-29T21:10:20.180Z,29.97
2019-04-29T21:13:27.864Z,25.07
2019-04-29T21:16:22.873Z,24.07
2019-04-29T21:18:56.789Z,25.80
2019-04-29T21:21:27.184Z,26.97
2019-04-29T21:23:58.585Z,26.03
2019-04-29T21:26:29.325Z,25.00
2019-04-29T21:28:59.828Z,25.00
2019-04-29T21:31:30.241Z,26.63
2019-04-29T21:34:00.514Z,24.90
2019-04-29T21:36:52.715Z,27.13
2019-04-29T21:39:38.159Z,25.87
2019-04-29T21:42:15.890Z,28.37
2019-04-29T21:44:47.202Z,26.13
2019-04-29T21:47:18.144Z,27.53
2019-04-29T21:49:49.797Z,28.50
2019-04-29T21:52:24.126Z,26.67
2019-04-29T21:54:52.532Z,27.57
2019-04-29T21:57:24.002Z,26.93
2019-04-29T21:59:55.544Z,27.03
2019-04-29T22:02:26.189Z,27.57
2019-04-29T22:04:56.576Z,27.97
2019-04-29T22:07:26.972Z,28.23
2019-04-29T22:09:57.418Z,27.47
2019-04-29T22:12:27.834Z,28.33
2019-04-29T22:14:59.478Z,30.27
2019-04-29T22:17:32.939Z,29.97
2019-04-29T22:20:07.421Z,29.87
2019-04-29T22:22:36.565Z,31.20
2019-04-29T22:25:09.929Z,41.47
2019-04-29T22:27:41.235Z,33.50
2019-04-29T22:30:18.562Z,33.83
2019-04-29T22:32:51.867Z,35.27
2019-04-29T22:35:21.233Z,36.13
2019-04-29T22:37:51.650Z,34.17
2019-04-29T22:40:22.044Z,34.70
2019-04-29T22:43:16.764Z,36.50
2019-04-29T22:45:47.472Z,36.93
2019-04-29T22:48:19.848Z,36.77
2019-04-29T22:50:49.909Z,38.23
2019-04-29T22:53:20.450Z,36.10
2019-04-29T22:55:50.806Z,38.70
2019-04-29T22:58:21.540Z,40.23
2019-04-29T23:00:51.852Z,41.60
2019-04-29T23:03:22.292Z,45.03
2019-04-29T23:05:52.794Z,41.67
2019-04-29T23:08:25.094Z,40.50
2019-04-29T23:10:59.794Z,45.17
2019-04-29T23:13:31.160Z,41.23
2019-04-29T23:16:02.098Z,42.10
2019-04-29T23:18:41.111Z,42.67
2019-04-29T23:21:23.720Z,42.63
2019-04-29T23:24:08.357Z,41.60
2019-04-29T23:26:41.102Z,44.13
2019-04-29T23:29:09.228Z,44.17
2019-04-29T23:31:39.710Z,38.93
2019-04-29T23:34:10.105Z,40.30
2019-04-29T23:36:40.616Z,41.53
2019-04-29T23:39:10.963Z,43.13
2019-04-29T23:41:41.974Z,43.50
2019-04-29T23:44:12.332Z,41.50
2019-04-29T23:46:42.719Z,46.80
2019-04-29T23:49:15.302Z,45.03
2019-04-29T23:51:46.453Z,45.20
2019-04-29T23:54:17.201Z,44.87
2019-04-29T23:57:06.135Z,44.53
2019-04-29T23:59:38.339Z,45.67
